sensor_id;sensor_type;location;lat;lon;timestamp;P1;P2;P0
74880;PMS5003;63427;49.654;6.596;2022-12-13T00:01:18;39;36;
74880;PMS5003;63427;49.654;6.596;2022-12-13T00:03:43;29;28;
74880;PMS5003;63427;49.654;6.596;2022-12-13T00:06:10;34;32;
74880;PMS5003;63427;49.654;6.596;2022-12-13T00:08:34;34;32;
74880;PMS5003;63427;49.654;6.596;2022-12-13T00:10:59;36;34;
74880;PMS5003;63427;49.654;6.596;2022-12-13T00:13:25;36;35;
74880;PMS5003;63427;49.654;6.596;2022-12-13T00:15:54;43;39;
74880;PMS5003;63427;49.654;6.596;2022-12-13T00:18:15;38;32;
74880;PMS5003;63427;49.654;6.596;2022-12-13T00:20:41;31;30;
74880;PMS5003;63427;49.654;6.596;2022-12-13T00:23:06;39;36;
74880;PMS5003;63427;49.654;6.596;2022-12-13T00:25:32;34;30;
74880;PMS5003;63427;49.654;6.596;2022-12-13T00:27:57;30;30;
74880;PMS5003;63427;49.654;6.596;2022-12-13T00:30:22;38;36;
74880;PMS5003;63427;49.654;6.596;2022-12-13T00:32:48;40;34;
74880;PMS5003;63427;49.654;6.596;2022-12-13T00:35:13;35;32;
74880;PMS5003;63427;49.654;6.596;2022-12-13T00:37:39;30;30;
74880;PMS5003;63427;49.654;6.596;2022-12-13T00:40:04;32;31;
74880;PMS5003;63427;49.654;6.596;2022-12-13T00:42:29;34;31;
74880;PMS5003;63427;49.654;6.596;2022-12-13T00:44:55;31;30;
74880;PMS5003;63427;49.654;6.596;2022-12-13T00:47:20;50;49;
74880;PMS5003;63427;49.654;6.596;2022-12-13T00:49:45;32;32;
74880;PMS5003;63427;49.654;6.596;2022-12-13T00:52:11;42;38;
74880;PMS5003;63427;49.654;6.596;2022-12-13T00:54:36;46;43;
74880;PMS5003;63427;49.654;6.596;2022-12-13T00:57:01;39;35;
74880;PMS5003;63427;49.654;6.596;2022-12-13T00:59:27;50;41;
74880;PMS5003;63427;49.654;6.596;2022-12-13T01:01:53;43;38;
74880;PMS5003;63427;49.654;6.596;2022-12-13T01:04:18;42;38;
74880;PMS5003;63427;49.654;6.596;2022-12-13T01:06:45;40;35;
74880;PMS5003;63427;49.654;6.596;2022-12-13T01:09:13;36;34;
74880;PMS5003;63427;49.654;6.596;2022-12-13T01:11:35;46;45;
74880;PMS5003;63427;49.654;6.596;2022-12-13T01:14:01;35;28;
74880;PMS5003;63427;49.654;6.596;2022-12-13T01:16:26;34;31;
74880;PMS5003;63427;49.654;6.596;2022-12-13T01:18:52;41;39;
74880;PMS5003;63427;49.654;6.596;2022-12-13T01:21:18;42;42;
74880;PMS5003;63427;49.654;6.596;2022-12-13T01:23:42;43;38;
74880;PMS5003;63427;49.654;6.596;2022-12-13T01:26:08;41;38;
74880;PMS5003;63427;49.654;6.596;2022-12-13T01:28:33;43;38;
74880;PMS5003;63427;49.654;6.596;2022-12-13T01:30:59;35;34;
74880;PMS5003;63427;49.654;6.596;2022-12-13T01:33:24;36;34;
74880;PMS5003;63427;49.654;6.596;2022-12-13T01:35:49;32;32;
74880;PMS5003;63427;49.654;6.596;2022-12-13T01:38:14;37;28;
74880;PMS5003;63427;49.654;6.596;2022-12-13T01:40:42;48;42;
74880;PMS5003;63427;49.654;6.596;2022-12-13T01:43:07;37;34;
74880;PMS5003;63427;49.654;6.596;2022-12-13T01:45:30;34;32;
74880;PMS5003;63427;49.654;6.596;2022-12-13T01:47:56;45;43;
74880;PMS5003;63427;49.654;6.596;2022-12-13T01:50:21;38;34;
74880;PMS5003;63427;49.654;6.596;2022-12-13T01:52:47;37;30;
74880;PMS5003;63427;49.654;6.596;2022-12-13T01:55:12;54;50;
74880;PMS5003;63427;49.654;6.596;2022-12-13T01:57:38;39;37;
74880;PMS5003;63427;49.654;6.596;2022-12-13T02:00:04;41;40;
74880;PMS5003;63427;49.654;6.596;2022-12-13T02:02:28;42;41;
74880;PMS5003;63427;49.654;6.596;2022-12-13T02:04:55;46;39;
74880;PMS5003;63427;49.654;6.596;2022-12-13T02:07:21;45;41;
74880;PMS5003;63427;49.654;6.596;2022-12-13T02:09:45;42;41;
74880;PMS5003;63427;49.654;6.596;2022-12-13T02:12:11;46;42;
74880;PMS5003;63427;49.654;6.596;2022-12-13T02:14:36;56;50;
74880;PMS5003;63427;49.654;6.596;2022-12-13T02:17:03;46;38;
74880;PMS5003;63427;49.654;6.596;2022-12-13T02:21:54;33;31;
74880;PMS5003;63427;49.654;6.596;2022-12-13T02:24:25;42;41;
74880;PMS5003;63427;49.654;6.596;2022-12-13T02:26:47;41;39;
74880;PMS5003;63427;49.654;6.596;2022-12-13T02:29:14;35;33;
74880;PMS5003;63427;49.654;6.596;2022-12-13T02:31:36;42;41;
74880;PMS5003;63427;49.654;6.596;2022-12-13T02:34:00;46;43;
74880;PMS5003;63427;49.654;6.596;2022-12-13T02:36:26;49;48;
74880;PMS5003;63427;49.654;6.596;2022-12-13T02:38:51;34;33;
74880;PMS5003;63427;49.654;6.596;2022-12-13T02:41:16;41;37;
74880;PMS5003;63427;49.654;6.596;2022-12-13T02:43:43;46;45;
74880;PMS5003;63427;49.654;6.596;2022-12-13T02:46:07;42;38;
74880;PMS5003;63427;49.654;6.596;2022-12-13T02:48:33;39;37;
74880;PMS5003;63427;49.654;6.596;2022-12-13T02:50:57;34;34;
74880;PMS5003;63427;49.654;6.596;2022-12-13T02:53:23;38;35;
74880;PMS5003;63427;49.654;6.596;2022-12-13T02:55:49;58;55;
74880;PMS5003;63427;49.654;6.596;2022-12-13T02:58:15;45;44;
74880;PMS5003;63427;49.654;6.596;2022-12-13T03:00:44;48;44;
74880;PMS5003;63427;49.654;6.596;2022-12-13T03:03:10;40;38;
74880;PMS5003;63427;49.654;6.596;2022-12-13T03:05:34;48;44;
74880;PMS5003;63427;49.654;6.596;2022-12-13T03:07:59;43;41;
74880;PMS5003;63427;49.654;6.596;2022-12-13T03:10:24;45;44;
74880;PMS5003;63427;49.654;6.596;2022-12-13T03:12:49;47;41;
74880;PMS5003;63427;49.654;6.596;2022-12-13T03:15:15;48;44;
74880;PMS5003;63427;49.654;6.596;2022-12-13T03:17:40;41;40;
74880;PMS5003;63427;49.654;6.596;2022-12-13T03:20:05;40;38;
74880;PMS5003;63427;49.654;6.596;2022-12-13T03:22:32;61;50;
74880;PMS5003;63427;49.654;6.596;2022-12-13T03:24:55;48;42;
74880;PMS5003;63427;49.654;6.596;2022-12-13T03:27:21;50;48;
74880;PMS5003;63427;49.654;6.596;2022-12-13T03:29:47;45;42;
74880;PMS5003;63427;49.654;6.596;2022-12-13T03:32:13;41;39;
74880;PMS5003;63427;49.654;6.596;2022-12-13T03:34:39;42;38;
74880;PMS5003;63427;49.654;6.596;2022-12-13T03:37:05;52;47;
74880;PMS5003;63427;49.654;6.596;2022-12-13T03:39:30;33;32;
74880;PMS5003;63427;49.654;6.596;2022-12-13T03:41:55;46;39;
74880;PMS5003;63427;49.654;6.596;2022-12-13T03:44:21;50;46;
74880;PMS5003;63427;49.654;6.596;2022-12-13T03:46:46;55;48;
74880;PMS5003;63427;49.654;6.596;2022-12-13T03:49:12;53;50;
74880;PMS5003;63427;49.654;6.596;2022-12-13T03:51:38;43;40;
74880;PMS5003;63427;49.654;6.596;2022-12-13T03:54:03;53;46;
74880;PMS5003;63427;49.654;6.596;2022-12-13T03:56:28;51;46;
74880;PMS5003;63427;49.654;6.596;2022-12-13T03:58:55;46;42;
74880;PMS5003;63427;49.654;6.596;2022-12-13T04:01:20;50;46;
74880;PMS5003;63427;49.654;6.596;2022-12-13T04:03:45;46;44;
74880;PMS5003;63427;49.654;6.596;2022-12-13T04:06:11;50;47;
74880;PMS5003;63427;49.654;6.596;2022-12-13T04:08:36;52;49;
74880;PMS5003;63427;49.654;6.596;2022-12-13T04:11:02;49;40;
74880;PMS5003;63427;49.654;6.596;2022-12-13T04:13:27;44;42;
74880;PMS5003;63427;49.654;6.596;2022-12-13T04:15:52;53;50;
74880;PMS5003;63427;49.654;6.596;2022-12-13T04:18:18;29;29;
74880;PMS5003;63427;49.654;6.596;2022-12-13T04:20:44;53;44;
74880;PMS5003;63427;49.654;6.596;2022-12-13T04:23:10;50;47;
74880;PMS5003;63427;49.654;6.596;2022-12-13T04:25:35;49;42;
74880;PMS5003;63427;49.654;6.596;2022-12-13T04:28:00;42;40;
74880;PMS5003;63427;49.654;6.596;2022-12-13T04:30:26;49;45;
74880;PMS5003;63427;49.654;6.596;2022-12-13T04:32:52;52;44;
74880;PMS5003;63427;49.654;6.596;2022-12-13T04:35:18;45;42;
74880;PMS5003;63427;49.654;6.596;2022-12-13T04:37:43;54;46;
74880;PMS5003;63427;49.654;6.596;2022-12-13T04:40:09;43;39;
74880;PMS5003;63427;49.654;6.596;2022-12-13T04:42:35;52;49;
74880;PMS5003;63427;49.654;6.596;2022-12-13T04:45:00;52;47;
74880;PMS5003;63427;49.654;6.596;2022-12-13T04:47:26;49;47;
74880;PMS5003;63427;49.654;6.596;2022-12-13T04:49:51;42;39;
74880;PMS5003;63427;49.654;6.596;2022-12-13T04:52:16;49;45;
74880;PMS5003;63427;49.654;6.596;2022-12-13T04:54:42;43;42;
74880;PMS5003;63427;49.654;6.596;2022-12-13T04:57:09;45;40;
74880;PMS5003;63427;49.654;6.596;2022-12-13T04:59:33;40;39;
74880;PMS5003;63427;49.654;6.596;2022-12-13T05:01:58;53;47;
74880;PMS5003;63427;49.654;6.596;2022-12-13T05:04:24;53;48;
74880;PMS5003;63427;49.654;6.596;2022-12-13T05:06:49;40;35;
74880;PMS5003;63427;49.654;6.596;2022-12-13T05:09:15;42;39;
74880;PMS5003;63427;49.654;6.596;2022-12-13T05:11:40;47;43;
74880;PMS5003;63427;49.654;6.596;2022-12-13T05:14:05;49;46;
74880;PMS5003;63427;49.654;6.596;2022-12-13T05:16:31;43;42;
74880;PMS5003;63427;49.654;6.596;2022-12-13T05:18:56;52;47;
74880;PMS5003;63427;49.654;6.596;2022-12-13T05:21:24;42;40;
74880;PMS5003;63427;49.654;6.596;2022-12-13T05:23:47;46;38;
74880;PMS5003;63427;49.654;6.596;2022-12-13T05:26:13;50;45;
74880;PMS5003;63427;49.654;6.596;2022-12-13T05:28:38;48;45;
74880;PMS5003;63427;49.654;6.596;2022-12-13T05:31:06;52;46;
74880;PMS5003;63427;49.654;6.596;2022-12-13T05:33:29;55;45;
74880;PMS5003;63427;49.654;6.596;2022-12-13T05:35:54;46;46;
74880;PMS5003;63427;49.654;6.596;2022-12-13T05:38:20;42;36;
74880;PMS5003;63427;49.654;6.596;2022-12-13T05:40:46;45;41;
74880;PMS5003;63427;49.654;6.596;2022-12-13T05:43:11;38;33;
74880;PMS5003;63427;49.654;6.596;2022-12-13T05:45:36;43;41;
74880;PMS5003;63427;49.654;6.596;2022-12-13T05:48:01;43;39;
74880;PMS5003;63427;49.654;6.596;2022-12-13T05:50:26;55;49;
74880;PMS5003;63427;49.654;6.596;2022-12-13T05:52:51;48;41;
74880;PMS5003;63427;49.654;6.596;2022-12-13T05:55:17;62;57;
74880;PMS5003;63427;49.654;6.596;2022-12-13T05:57:42;66;59;
74880;PMS5003;63427;49.654;6.596;2022-12-13T06:00:08;52;52;
74880;PMS5003;63427;49.654;6.596;2022-12-13T06:02:35;59;53;
74880;PMS5003;63427;49.654;6.596;2022-12-13T06:04:58;46;45;
74880;PMS5003;63427;49.654;6.596;2022-12-13T06:07:23;49;45;
74880;PMS5003;63427;49.654;6.596;2022-12-13T06:09:49;49;42;
74880;PMS5003;63427;49.654;6.596;2022-12-13T06:12:14;46;42;
74880;PMS5003;63427;49.654;6.596;2022-12-13T06:14:40;56;47;
74880;PMS5003;63427;49.654;6.596;2022-12-13T06:17:05;71;63;
74880;PMS5003;63427;49.654;6.596;2022-12-13T06:19:30;74;69;
74880;PMS5003;63427;49.654;6.596;2022-12-13T06:21:55;78;67;
74880;PMS5003;63427;49.654;6.596;2022-12-13T06:24:21;84;79;
74880;PMS5003;63427;49.654;6.596;2022-12-13T06:26:46;64;59;
74880;PMS5003;63427;49.654;6.596;2022-12-13T06:29:12;59;53;
74880;PMS5003;63427;49.654;6.596;2022-12-13T06:31:37;57;49;
74880;PMS5003;63427;49.654;6.596;2022-12-13T06:34:03;59;53;
74880;PMS5003;63427;49.654;6.596;2022-12-13T06:36:28;47;43;
74880;PMS5003;63427;49.654;6.596;2022-12-13T06:38:53;52;45;
74880;PMS5003;63427;49.654;6.596;2022-12-13T06:41:19;54;52;
74880;PMS5003;63427;49.654;6.596;2022-12-13T06:43:45;52;50;
74880;PMS5003;63427;49.654;6.596;2022-12-13T06:46:10;50;47;
74880;PMS5003;63427;49.654;6.596;2022-12-13T06:48:35;54;46;
74880;PMS5003;63427;49.654;6.596;2022-12-13T06:51:00;54;46;
74880;PMS5003;63427;49.654;6.596;2022-12-13T06:53:26;50;49;
74880;PMS5003;63427;49.654;6.596;2022-12-13T06:55:51;45;35;
74880;PMS5003;63427;49.654;6.596;2022-12-13T06:58:16;45;40;
74880;PMS5003;63427;49.654;6.596;2022-12-13T07:00:42;40;40;
74880;PMS5003;63427;49.654;6.596;2022-12-13T07:03:07;53;49;
74880;PMS5003;63427;49.654;6.596;2022-12-13T07:05:32;45;42;
74880;PMS5003;63427;49.654;6.596;2022-12-13T07:07:57;47;42;
74880;PMS5003;63427;49.654;6.596;2022-12-13T07:10:23;46;39;
74880;PMS5003;63427;49.654;6.596;2022-12-13T07:12:49;46;46;
74880;PMS5003;63427;49.654;6.596;2022-12-13T07:15:14;38;35;
74880;PMS5003;63427;49.654;6.596;2022-12-13T07:17:39;42;41;
74880;PMS5003;63427;49.654;6.596;2022-12-13T07:20:06;49;42;
74880;PMS5003;63427;49.654;6.596;2022-12-13T07:22:30;52;46;
74880;PMS5003;63427;49.654;6.596;2022-12-13T07:24:55;61;52;
74880;PMS5003;63427;49.654;6.596;2022-12-13T07:27:21;56;50;
74880;PMS5003;63427;49.654;6.596;2022-12-13T07:29:46;60;54;
74880;PMS5003;63427;49.654;6.596;2022-12-13T07:32:12;57;46;
74880;PMS5003;63427;49.654;6.596;2022-12-13T07:34:38;53;47;
74880;PMS5003;63427;49.654;6.596;2022-12-13T07:37:03;49;46;
74880;PMS5003;63427;49.654;6.596;2022-12-13T07:39:28;58;53;
74880;PMS5003;63427;49.654;6.596;2022-12-13T07:41:53;43;39;
74880;PMS5003;63427;49.654;6.596;2022-12-13T07:44:18;44;43;
74880;PMS5003;63427;49.654;6.596;2022-12-13T07:46:44;43;39;
74880;PMS5003;63427;49.654;6.596;2022-12-13T07:49:10;55;53;
74880;PMS5003;63427;49.654;6.596;2022-12-13T07:51:35;50;46;
74880;PMS5003;63427;49.654;6.596;2022-12-13T07:54:00;61;52;
74880;PMS5003;63427;49.654;6.596;2022-12-13T07:56:26;65;55;
74880;PMS5003;63427;49.654;6.596;2022-12-13T07:58:52;54;50;
74880;PMS5003;63427;49.654;6.596;2022-12-13T08:01:17;51;48;
74880;PMS5003;63427;49.654;6.596;2022-12-13T08:03:43;51;47;
74880;PMS5003;63427;49.654;6.596;2022-12-13T08:06:09;51;45;
74880;PMS5003;63427;49.654;6.596;2022-12-13T08:08:34;58;51;
74880;PMS5003;63427;49.654;6.596;2022-12-13T08:11:00;48;42;
74880;PMS5003;63427;49.654;6.596;2022-12-13T08:13:25;49;45;
74880;PMS5003;63427;49.654;6.596;2022-12-13T08:18:16;50;48;
74880;PMS5003;63427;49.654;6.596;2022-12-13T08:20:41;61;55;
74880;PMS5003;63427;49.654;6.596;2022-12-13T08:23:06;57;52;
74880;PMS5003;63427;49.654;6.596;2022-12-13T08:25:32;61;57;
74880;PMS5003;63427;49.654;6.596;2022-12-13T08:27:57;46;46;
74880;PMS5003;63427;49.654;6.596;2022-12-13T08:30:22;57;47;
74880;PMS5003;63427;49.654;6.596;2022-12-13T08:32:49;53;50;
74880;PMS5003;63427;49.654;6.596;2022-12-13T08:35:14;43;40;
74880;PMS5003;63427;49.654;6.596;2022-12-13T08:37:39;61;55;
74880;PMS5003;63427;49.654;6.596;2022-12-13T08:40:05;54;50;
74880;PMS5003;63427;49.654;6.596;2022-12-13T08:42:30;47;46;
74880;PMS5003;63427;49.654;6.596;2022-12-13T08:44:56;59;51;
74880;PMS5003;63427;49.654;6.596;2022-12-13T08:47:23;48;46;
74880;PMS5003;63427;49.654;6.596;2022-12-13T08:49:47;52;44;
74880;PMS5003;63427;49.654;6.596;2022-12-13T08:52:12;44;41;
74880;PMS5003;63427;49.654;6.596;2022-12-13T08:54:38;52;44;
74880;PMS5003;63427;49.654;6.596;2022-12-13T08:57:03;52;50;
74880;PMS5003;63427;49.654;6.596;2022-12-13T08:59:28;38;37;
74880;PMS5003;63427;49.654;6.596;2022-12-13T09:01:54;53;47;
74880;PMS5003;63427;49.654;6.596;2022-12-13T09:04:20;48;42;
74880;PMS5003;63427;49.654;6.596;2022-12-13T09:06:45;57;54;
74880;PMS5003;63427;49.654;6.596;2022-12-13T09:09:10;59;57;
74880;PMS5003;63427;49.654;6.596;2022-12-13T09:11:35;63;53;
74880;PMS5003;63427;49.654;6.596;2022-12-13T09:14:00;51;47;
74880;PMS5003;63427;49.654;6.596;2022-12-13T09:16:26;52;47;
74880;PMS5003;63427;49.654;6.596;2022-12-13T09:18:51;68;66;
74880;PMS5003;63427;49.654;6.596;2022-12-13T09:21:16;65;59;
74880;PMS5003;63427;49.654;6.596;2022-12-13T09:23:42;59;55;
74880;PMS5003;63427;49.654;6.596;2022-12-13T09:26:09;66;58;
74880;PMS5003;63427;49.654;6.596;2022-12-13T09:28:34;55;51;
74880;PMS5003;63427;49.654;6.596;2022-12-13T09:30:59;69;64;
74880;PMS5003;63427;49.654;6.596;2022-12-13T09:33:25;49;48;
74880;PMS5003;63427;49.654;6.596;2022-12-13T09:35:50;71;68;
74880;PMS5003;63427;49.654;6.596;2022-12-13T09:38:15;68;57;
74880;PMS5003;63427;49.654;6.596;2022-12-13T09:40:42;73;69;
74880;PMS5003;63427;49.654;6.596;2022-12-13T09:43:06;63;59;
74880;PMS5003;63427;49.654;6.596;2022-12-13T09:45:32;50;49;
74880;PMS5003;63427;49.654;6.596;2022-12-13T09:47:58;52;49;
74880;PMS5003;63427;49.654;6.596;2022-12-13T09:50:24;44;42;
74880;PMS5003;63427;49.654;6.596;2022-12-13T09:52:49;57;53;
74880;PMS5003;63427;49.654;6.596;2022-12-13T09:55:17;53;48;
74880;PMS5003;63427;49.654;6.596;2022-12-13T09:57:40;64;60;
74880;PMS5003;63427;49.654;6.596;2022-12-13T10:00:11;62;59;
74880;PMS5003;63427;49.654;6.596;2022-12-13T10:02:31;62;56;
74880;PMS5003;63427;49.654;6.596;2022-12-13T10:04:56;70;66;
74880;PMS5003;63427;49.654;6.596;2022-12-13T10:07:23;67;63;
74880;PMS5003;63427;49.654;6.596;2022-12-13T10:09:49;64;62;
74880;PMS5003;63427;49.654;6.596;2022-12-13T10:12:14;56;55;
74880;PMS5003;63427;49.654;6.596;2022-12-13T10:14:39;42;41;
74880;PMS5003;63427;49.654;6.596;2022-12-13T10:17:05;50;49;
74880;PMS5003;63427;49.654;6.596;2022-12-13T10:19:32;52;51;
74880;PMS5003;63427;49.654;6.596;2022-12-13T10:21:56;61;54;
74880;PMS5003;63427;49.654;6.596;2022-12-13T10:24:23;53;48;
74880;PMS5003;63427;49.654;6.596;2022-12-13T10:26:47;49;47;
74880;PMS5003;63427;49.654;6.596;2022-12-13T10:29:12;49;48;
74880;PMS5003;63427;49.654;6.596;2022-12-13T10:34:03;49;46;
74880;PMS5003;63427;49.654;6.596;2022-12-13T10:36:29;50;45;
74880;PMS5003;63427;49.654;6.596;2022-12-13T10:38:54;55;51;
74880;PMS5003;63427;49.654;6.596;2022-12-13T10:41:25;47;46;
74880;PMS5003;63427;49.654;6.596;2022-12-13T10:43:44;48;46;
74880;PMS5003;63427;49.654;6.596;2022-12-13T10:46:16;44;42;
74880;PMS5003;63427;49.654;6.596;2022-12-13T10:48:37;47;42;
74880;PMS5003;63427;49.654;6.596;2022-12-13T10:51:02;41;36;
74880;PMS5003;63427;49.654;6.596;2022-12-13T10:53:28;48;48;
74880;PMS5003;63427;49.654;6.596;2022-12-13T10:55:52;46;45;
74880;PMS5003;63427;49.654;6.596;2022-12-13T10:58:18;52;47;
74880;PMS5003;63427;49.654;6.596;2022-12-13T11:00:43;46;46;
74880;PMS5003;63427;49.654;6.596;2022-12-13T11:03:09;48;47;
74880;PMS5003;63427;49.654;6.596;2022-12-13T11:05:34;40;39;
74880;PMS5003;63427;49.654;6.596;2022-12-13T11:10:25;58;55;
74880;PMS5003;63427;49.654;6.596;2022-12-13T11:12:51;52;43;
74880;PMS5003;63427;49.654;6.596;2022-12-13T11:15:16;56;50;
74880;PMS5003;63427;49.654;6.596;2022-12-13T11:17:44;52;49;
74880;PMS5003;63427;49.654;6.596;2022-12-13T11:20:07;71;66;
74880;PMS5003;63427;49.654;6.596;2022-12-13T11:22:33;52;48;
74880;PMS5003;63427;49.654;6.596;2022-12-13T11:24:59;59;56;
74880;PMS5003;63427;49.654;6.596;2022-12-13T11:29:50;67;62;
74880;PMS5003;63427;49.654;6.596;2022-12-13T11:32:16;53;50;
74880;PMS5003;63427;49.654;6.596;2022-12-13T11:34:41;49;48;
74880;PMS5003;63427;49.654;6.596;2022-12-13T11:37:07;49;46;
74880;PMS5003;63427;49.654;6.596;2022-12-13T11:39:31;54;49;
74880;PMS5003;63427;49.654;6.596;2022-12-13T11:41:57;42;40;
74880;PMS5003;63427;49.654;6.596;2022-12-13T11:44:24;50;48;
74880;PMS5003;63427;49.654;6.596;2022-12-13T11:46:48;46;44;
74880;PMS5003;63427;49.654;6.596;2022-12-13T11:49:13;46;43;
74880;PMS5003;63427;49.654;6.596;2022-12-13T11:51:39;39;38;
74880;PMS5003;63427;49.654;6.596;2022-12-13T11:54:04;46;43;
74880;PMS5003;63427;49.654;6.596;2022-12-13T11:56:30;44;42;
74880;PMS5003;63427;49.654;6.596;2022-12-13T11:58:55;44;43;
74880;PMS5003;63427;49.654;6.596;2022-12-13T12:01:20;44;41;
74880;PMS5003;63427;49.654;6.596;2022-12-13T12:03:45;41;38;
74880;PMS5003;63427;49.654;6.596;2022-12-13T12:06:12;43;41;
74880;PMS5003;63427;49.654;6.596;2022-12-13T12:08:37;42;38;
74880;PMS5003;63427;49.654;6.596;2022-12-13T12:11:03;43;40;
74880;PMS5003;63427;49.654;6.596;2022-12-13T12:13:27;39;39;
74880;PMS5003;63427;49.654;6.596;2022-12-13T12:15:53;41;38;
74880;PMS5003;63427;49.654;6.596;2022-12-13T12:18:16;51;50;
74880;PMS5003;63427;49.654;6.596;2022-12-13T12:20:45;50;47;
74880;PMS5003;63427;49.654;6.596;2022-12-13T12:23:08;47;47;
74880;PMS5003;63427;49.654;6.596;2022-12-13T12:25:35;51;47;
74880;PMS5003;63427;49.654;6.596;2022-12-13T12:27:59;52;49;
74880;PMS5003;63427;49.654;6.596;2022-12-13T12:30:23;45;44;
74880;PMS5003;63427;49.654;6.596;2022-12-13T12:32:50;52;46;
74880;PMS5003;63427;49.654;6.596;2022-12-13T12:35:21;44;42;
74880;PMS5003;63427;49.654;6.596;2022-12-13T12:37:42;45;42;
74880;PMS5003;63427;49.654;6.596;2022-12-13T12:42:38;37;37;
74880;PMS5003;63427;49.654;6.596;2022-12-13T12:45:01;96;86;
74880;PMS5003;63427;49.654;6.596;2022-12-13T12:47:25;166;153;
74880;PMS5003;63427;49.654;6.596;2022-12-13T12:52:14;47;45;
74880;PMS5003;63427;49.654;6.596;2022-12-13T12:54:41;45;42;
74880;PMS5003;63427;49.654;6.596;2022-12-13T12:57:04;72;68;
74880;PMS5003;63427;49.654;6.596;2022-12-13T12:59:29;62;60;
74880;PMS5003;63427;49.654;6.596;2022-12-13T13:01:55;52;52;
74880;PMS5003;63427;49.654;6.596;2022-12-13T13:04:20;44;44;
74880;PMS5003;63427;49.654;6.596;2022-12-13T13:06:45;51;48;
74880;PMS5003;63427;49.654;6.596;2022-12-13T13:09:10;48;44;
74880;PMS5003;63427;49.654;6.596;2022-12-13T13:11:36;41;40;
74880;PMS5003;63427;49.654;6.596;2022-12-13T13:14:03;45;43;
74880;PMS5003;63427;49.654;6.596;2022-12-13T13:16:28;61;56;
74880;PMS5003;63427;49.654;6.596;2022-12-13T13:18:52;51;47;
74880;PMS5003;63427;49.654;6.596;2022-12-13T13:21:30;69;65;
74880;PMS5003;63427;49.654;6.596;2022-12-13T13:23:43;44;44;
74880;PMS5003;63427;49.654;6.596;2022-12-13T13:28:33;45;41;
74880;PMS5003;63427;49.654;6.596;2022-12-13T13:31:01;43;40;
74880;PMS5003;63427;49.654;6.596;2022-12-13T13:35:50;47;44;
74880;PMS5003;63427;49.654;6.596;2022-12-13T13:40:41;48;47;
74880;PMS5003;63427;49.654;6.596;2022-12-13T13:43:11;42;39;
74880;PMS5003;63427;49.654;6.596;2022-12-13T13:50:33;47;45;
74880;PMS5003;63427;49.654;6.596;2022-12-13T13:52:51;41;40;
74880;PMS5003;63427;49.654;6.596;2022-12-13T13:55:23;43;40;
74880;PMS5003;63427;49.654;6.596;2022-12-13T13:57:45;56;55;
74880;PMS5003;63427;49.654;6.596;2022-12-13T14:00:09;28;25;
74880;PMS5003;63427;49.654;6.596;2022-12-13T14:02:37;24;24;
74880;PMS5003;63427;49.654;6.596;2022-12-13T14:09:48;15;15;
74880;PMS5003;63427;49.654;6.596;2022-12-13T14:21:57;13;12;
74880;PMS5003;63427;49.654;6.596;2022-12-13T14:24:21;14;13;
74880;PMS5003;63427;49.654;6.596;2022-12-13T14:26:49;15;14;
74880;PMS5003;63427;49.654;6.596;2022-12-13T14:29:10;22;19;
74880;PMS5003;63427;49.654;6.596;2022-12-13T14:31:37;15;14;
74880;PMS5003;63427;49.654;6.596;2022-12-13T14:34:01;15;14;
74880;PMS5003;63427;49.654;6.596;2022-12-13T14:36:26;20;18;
74880;PMS5003;63427;49.654;6.596;2022-12-13T14:41:16;18;18;
74880;PMS5003;63427;49.654;6.596;2022-12-13T14:43:41;17;15;
74880;PMS5003;63427;49.654;6.596;2022-12-13T14:46:06;19;19;
74880;PMS5003;63427;49.654;6.596;2022-12-13T14:48:33;20;18;
74880;PMS5003;63427;49.654;6.596;2022-12-13T14:50:57;21;20;
74880;PMS5003;63427;49.654;6.596;2022-12-13T14:53:23;26;25;
74880;PMS5003;63427;49.654;6.596;2022-12-13T14:58:15;16;14;
74880;PMS5003;63427;49.654;6.596;2022-12-13T15:00:39;15;15;
74880;PMS5003;63427;49.654;6.596;2022-12-13T15:03:04;13;13;
74880;PMS5003;63427;49.654;6.596;2022-12-13T15:05:31;24;23;
74880;PMS5003;63427;49.654;6.596;2022-12-13T15:07:55;17;17;
74880;PMS5003;63427;49.654;6.596;2022-12-13T15:10:21;23;22;
74880;PMS5003;63427;49.654;6.596;2022-12-13T15:12:46;26;25;
74880;PMS5003;63427;49.654;6.596;2022-12-13T15:15:18;24;22;
74880;PMS5003;63427;49.654;6.596;2022-12-13T15:17:37;25;25;
74880;PMS5003;63427;49.654;6.596;2022-12-13T15:22:27;14;12;
74880;PMS5003;63427;49.654;6.596;2022-12-13T15:24:52;18;16;
74880;PMS5003;63427;49.654;6.596;2022-12-13T15:27:18;23;22;
74880;PMS5003;63427;49.654;6.596;2022-12-13T15:29:44;17;16;
74880;PMS5003;63427;49.654;6.596;2022-12-13T15:32:10;17;17;
74880;PMS5003;63427;49.654;6.596;2022-12-13T15:34:35;26;25;
74880;PMS5003;63427;49.654;6.596;2022-12-13T15:37:01;31;28;
74880;PMS5003;63427;49.654;6.596;2022-12-13T15:39:26;23;21;
74880;PMS5003;63427;49.654;6.596;2022-12-13T15:41:52;32;31;
74880;PMS5003;63427;49.654;6.596;2022-12-13T15:44:18;29;28;
74880;PMS5003;63427;49.654;6.596;2022-12-13T15:46:42;17;17;
74880;PMS5003;63427;49.654;6.596;2022-12-13T15:49:11;19;18;
74880;PMS5003;63427;49.654;6.596;2022-12-13T15:51:32;17;17;
74880;PMS5003;63427;49.654;6.596;2022-12-13T15:54:00;19;17;
74880;PMS5003;63427;49.654;6.596;2022-12-13T15:56:26;16;15;
74880;PMS5003;63427;49.654;6.596;2022-12-13T15:58:51;18;18;
74880;PMS5003;63427;49.654;6.596;2022-12-13T16:03:40;25;24;
74880;PMS5003;63427;49.654;6.596;2022-12-13T16:06:05;53;48;
74880;PMS5003;63427;49.654;6.596;2022-12-13T16:08:31;17;17;
74880;PMS5003;63427;49.654;6.596;2022-12-13T16:10:56;24;22;
74880;PMS5003;63427;49.654;6.596;2022-12-13T16:13:22;29;26;
74880;PMS5003;63427;49.654;6.596;2022-12-13T16:15:47;22;21;
74880;PMS5003;63427;49.654;6.596;2022-12-13T16:18:13;26;23;
74880;PMS5003;63427;49.654;6.596;2022-12-13T16:20:37;21;20;
74880;PMS5003;63427;49.654;6.596;2022-12-13T16:23:02;22;21;
74880;PMS5003;63427;49.654;6.596;2022-12-13T16:25:28;24;22;
74880;PMS5003;63427;49.654;6.596;2022-12-13T16:27:53;27;26;
74880;PMS5003;63427;49.654;6.596;2022-12-13T16:30:22;28;26;
74880;PMS5003;63427;49.654;6.596;2022-12-13T16:32:45;23;21;
74880;PMS5003;63427;49.654;6.596;2022-12-13T16:35:10;28;27;
74880;PMS5003;63427;49.654;6.596;2022-12-13T16:37:35;21;21;
74880;PMS5003;63427;49.654;6.596;2022-12-13T16:40:04;21;20;
74880;PMS5003;63427;49.654;6.596;2022-12-13T16:42:26;26;25;
74880;PMS5003;63427;49.654;6.596;2022-12-13T16:44:51;29;28;
74880;PMS5003;63427;49.654;6.596;2022-12-13T16:47:17;35;33;
74880;PMS5003;63427;49.654;6.596;2022-12-13T16:49:43;30;29;
74880;PMS5003;63427;49.654;6.596;2022-12-13T16:52:09;39;37;
74880;PMS5003;63427;49.654;6.596;2022-12-13T16:54:35;58;54;
74880;PMS5003;63427;49.654;6.596;2022-12-13T16:57:00;44;44;
74880;PMS5003;63427;49.654;6.596;2022-12-13T16:59:26;40;36;